EGMD/LYX METAR and TAF weather

Enter ICAO airport designator
Station Type Date Time Source
EGMD METAR 2021/05/14 07:50 UTC NOAA

EGMD 140750Z 03008KT 9999 SHRA BKN006 09/09 Q1009


Station Type Date Time Source
EGMD Decoded METAR 2021/05/14 07:50 UTC NOAA

Lydd Airport , United Kingdom (EGMD) 50-57N 000-56E
May 14, 2021 - 03:50 AM EDT / 2021.05.14 0750 UTC
Wind: from the NNE (030 degrees) at 9 MPH (8 KT):0
Visibility: greater than 7 mile(s):0
Sky conditions: mostly cloudy
Weather: rain showers
Temperature: 48 F (9 C)
Dew Point: 48 F (9 C)
Relative Humidity: 100%
Pressure (altimeter): 29.80 in. Hg (1009 hPa)
ob: EGMD 140750Z 03008KT 9999 SHRA BKN006 09/09 Q1009
cycle: 8

Station Type Date Time Source
EGMD TAF UTC NOAA

Error!

Example: see airport list